Latest Coastal Weather Observations for Cato Island

IDQ60701

Issued at 5:32 am EST Tuesday 7 February 2023 (issued every 10 minutes, with the page automatically refreshed every 10 minutes)

About coastal observations | Map of coastal stations | Coastal observations for QLD | Marine services | Other Formats
Station Details ID: 200601 Name: CATO ISLAND Lat: -23.25 Lon: 155.54 Height: 6.3 m
Data from the previous 72 hours. | See also: Recent months for locations in Queensland
Date/Time
EST
Wind Sea
Height
m
Swell Vis
km
Cloud Weather Temp
°C
Press
MSL
hPa
Rain since
9am
mm
Dir  Spd
kts
Gust
kts
Height
m
Period
s
Dir
07/05:30am ESE 18 21 - - - - - - - 27.1 1007.9 -
07/05:00am E 18 20 - - - - - - - 26.6 1008.0 -
07/04:30am ESE 19 25 - - - - - - - 26.7 1007.8 -
07/04:00am E 17 21 - - - - - - - 27.3 1007.6 -
07/03:30am ESE 19 22 - - - - - - - 27.4 1007.7 -
07/03:00am ESE 17 19 - - - - - - - 27.1 1007.8 -
07/02:30am ESE 17 22 - - - - - - - 27.4 1008.0 -
07/02:00am ESE 18 21 - - - - - - - 27.3 1008.3 -
07/01:30am ESE 22 26 - - - - - - - 26.8 1008.5 -
07/01:00am ESE 22 25 - - - - - - - 27.5 1008.6 -
07/12:30am E 20 25 - - - - - - - 26.7 1008.9 -
07/12:00am E 21 25 - - - - - - - 27.7 1009.2 -
 
Date/Time
EST
Wind Sea
Height
m
Swell Vis
km
Cloud Weather Temp
°C
Press
MSL
hPa
Rain since
9am
mm
Dir  Spd
kts
Gust
kts
Height
m
Period
s
Dir
06/11:30pm E 21 24 - - - - - - - 27.9 1009.5 -
06/11:00pm ESE 20 22 - - - - - - - 27.5 1009.9 -
06/10:30pm ESE 22 25 - - - - - - - 27.9 1010.4 -
06/10:00pm ESE 22 25 - - - - - - - 27.7 1010.5 -
06/09:30pm ESE 23 26 - - - - - - - 27.6 1010.3 -
06/09:00pm ESE 23 26 - - - - - - - 27.9 1010.3 -
06/08:30pm ESE 23 27 - - - - - - - 27.7 1010.4 -
06/08:00pm ESE 25 27 - - - - - - - 27.8 1010.3 -
06/07:30pm ESE 24 28 - - - - - - - 27.8 1010.1 -
06/07:00pm ESE 25 28 - - - - - - - 28.1 1009.7 -
06/06:30pm ESE 24 29 - - - - - - - 27.8 1009.5 -
06/06:00pm SE 25 29 - - - - - - - 28.1 1009.3 -
06/05:30pm SE 23 28 - - - - - - - 28.0 1009.1 -
06/05:00pm SE 23 25 - - - - - - - 28.3 1008.9 -
06/04:30pm SE 22 24 - - - - - - - 28.4 1008.7 -
06/04:00pm SE 21 23 - - - - - - - 28.6 1008.8 -
06/03:30pm ESE 21 24 - - - - - - - 28.6 1008.8 -
06/03:00pm SE 21 23 - - - - - - - 28.4 1008.9 -
06/02:30pm SE 20 22 - - - - - - - 28.5 1009.3 -
06/02:00pm ESE 18 20 - - - - - - - 28.9 1009.6 -
06/01:30pm ESE 18 21 - - - - - - - 28.6 1009.8 -
06/01:00pm ESE 17 19 - - - - - - - 28.8 1010.0 -
06/12:30pm ESE 18 20 - - - - - - - 28.8 1010.2 -
06/12:00pm ESE 18 21 - - - - - - - 28.6 1010.5 -
06/11:30am ESE 19 22 - - - - - - - 28.7 1010.8 -
06/11:00am ESE 19 21 - - - - - - - 28.6 1010.9 -
06/10:30am ESE 18 20 - - - - - - - 28.5 1011.0 -
06/10:00am ESE 18 21 - - - - - - - 28.5 1011.2 -
06/09:30am E 18 21 - - - - - - - 28.5 1011.1 -
06/09:00am E 18 21 - - - - - - - 28.3 1011.3 -
06/08:30am E 18 21 - - - - - - - 28.2 1011.4 -
06/08:00am ESE 16 19 - - - - - - - 28.2 1011.3 -
06/07:30am ESE 17 19 - - - - - - - 28.1 1011.1 -
06/07:00am ESE 17 20 - - - - - - - 27.9 1011.1 -
06/06:30am ESE 17 19 - - - - - - - 28.1 1011.2 -
06/06:00am ESE 17 20 - - - - - - - 27.8 1010.7 -
06/05:30am E 19 21 - - - - - - - 27.8 1010.3 -
06/05:00am ESE 19 21 - - - - - - - 27.8 1010.0 -
06/04:30am E 19 22 - - - - - - - 27.7 1009.5 -
06/04:00am E 18 21 - - - - - - - 27.7 1009.3 -
06/03:30am E 17 20 - - - - - - - 27.6 1009.3 -
06/03:00am E 19 23 - - - - - - - 27.7 1009.3 -
06/02:30am E 19 22 - - - - - - - 27.7 1009.2 -
06/02:00am E 20 23 - - - - - - - 27.8 1009.1 -
06/01:30am E 18 21 - - - - - - - 27.9 1009.1 -
06/01:00am E 18 21 - - - - - - - 27.7 1009.3 -
06/12:30am ESE 18 21 - - - - - - - 27.9 1009.8 -
06/12:00am ESE 18 20 - - - - - - - 28.1 1010.1 -
 
Date/Time
EST
Wind Sea
Height
m
Swell Vis
km
Cloud Weather Temp
°C
Press
MSL
hPa
Rain since
9am
mm
Dir  Spd
kts
Gust
kts
Height
m
Period
s
Dir
05/11:30pm ESE 18 20 - - - - - - - 28.1 1010.5 -
05/11:00pm ESE 17 19 - - - - - - - 28.1 1010.6 -
05/10:30pm ESE 16 18 - - - - - - - 28.1 1010.7 -
05/10:00pm ESE 15 17 - - - - - - - 28.4 1010.8 -
05/09:30pm ESE 15 17 - - - - - - - 28.1 1010.9 -
05/09:00pm ESE 14 17 - - - - - - - 28.1 1010.8 -
05/08:30pm ESE 15 17 - - - - - - - 28.3 1010.8 -
05/08:00pm ESE 15 17 - - - - - - - 28.4 1010.8 -
05/07:30pm ESE 14 16 - - - - - - - 28.3 1010.6 -
05/07:00pm E 14 16 - - - - - - - 28.4 1010.5 -
05/06:30pm E 14 15 - - - - - - - 28.6 1010.2 -
05/06:00pm E 13 14 - - - - - - - 28.6 1010.0 -
05/05:30pm ENE 12 13 - - - - - - - 28.8 1009.5 -
05/05:00pm ENE 11 13 - - - - - - - 28.8 1009.5 -
05/04:30pm E 10 12 - - - - - - - 28.9 1009.4 -
05/04:00pm E 10 11 - - - - - - - 29.2 1009.3 -
05/03:30pm E 10 11 - - - - - - - 29.4 1009.3 -
05/03:00pm ENE 10 11 - - - - - - - 29.5 1009.4 -
05/02:30pm E 9 10 - - - - - - - 29.8 1009.5 -
05/02:00pm ENE 9 10 - - - - - - - 29.7 1009.7 -
05/01:30pm ENE 8 9 - - - - - - - 30.1 1010.0 -
05/01:00pm ENE 7 8 - - - - - - - 30.4 1010.0 -
05/12:30pm ENE 7 9 - - - - - - - 30.1 1010.2 -
05/12:00pm ENE 9 10 - - - - - - - 30.5 1010.3 -
05/11:30am NE 10 11 - - - - - - - 30.3 1010.4 -
05/11:00am NE 9 10 - - - - - - - 30.6 1010.6 -
05/10:30am NE 9 10 - - - - - - - 29.4 1010.8 -
05/10:00am ENE 7 8 - - - - - - - 30.5 1010.9 -
05/09:30am ENE 6 7 - - - - - - - 29.7 1011.0 -
05/09:00am NE 6 7 - - - - - - - 29.4 1010.9 -
05/08:30am NE 7 8 - - - - - - - 29.4 1010.4 -
05/08:00am NE 7 8 - - - - - - - 29.4 1010.1 -
05/07:30am NNE 5 6 - - - - - - - 29.6 1010.0 -
05/07:00am NNE 6 7 - - - - - - - 29.2 1009.7 -
05/06:30am NE 7 9 - - - - - - - 28.4 1009.4 -
05/06:00am NE 7 8 - - - - - - - 27.9 1009.1 -
05/05:30am NE 7 8 - - - - - - - 27.4 1008.7 -
05/05:00am NNE 8 9 - - - - - - - 27.4 1008.1 -
05/04:30am NNE 7 9 - - - - - - - 27.5 1007.7 -
05/04:00am NNE 7 9 - - - - - - - 27.4 1007.6 -
05/03:30am NE 9 11 - - - - - - - 27.4 1007.6 -
05/03:00am NE 8 9 - - - - - - - 27.4 1007.5 -
05/02:30am NE 9 11 - - - - - - - 27.5 1007.4 -
05/02:00am NE 10 11 - - - - - - - 27.3 1007.5 -
05/01:30am NE 10 13 - - - - - - - 27.5 1007.5 -
05/01:00am NE 11 13 - - - - - - - 27.5 1007.6 -
05/12:30am NE 11 12 - - - - - - - 27.6 1007.8 -
05/12:00am NE 12 14 - - - - - - - 27.6 1008.0 -
 
Date/Time
EST
Wind Sea
Height
m
Swell Vis
km
Cloud Weather Temp
°C
Press
MSL
hPa
Rain since
9am
mm
Dir  Spd
kts
Gust
kts
Height
m
Period
s
Dir
04/11:30pm NNE 9 11 - - - - - - - 27.5 1008.4 -
04/11:00pm NNE 9 11 - - - - - - - 27.7 1008.7 -
04/10:30pm NNE 11 13 - - - - - - - 27.8 1008.8 -
04/10:00pm NNE 11 13 - - - - - - - 27.8 1009.0 -
04/09:30pm NE 13 14 - - - - - - - 27.9 1008.8 -
04/09:00pm NE 13 15 - - - - - - - 28.0 1008.7 -
04/08:30pm NE 12 14 - - - - - - - 28.1 1008.4 -
04/08:00pm NE 11 13 - - - - - - - 28.2 1008.3 -
04/07:30pm NNE 12 14 - - - - - - - 28.3 1008.1 -
04/07:00pm NE 10 12 - - - - - - - 28.3 1007.7 -
04/06:30pm NE 11 13 - - - - - - - 28.3 1007.1 -
04/06:00pm NNE 10 11 - - - - - - - 28.4 1006.6 -
04/05:30pm NNE 7 10 - - - - - - - 28.7 1006.3 -
04/05:00pm NNE 7 8 - - - - - - - 29.2 1005.9 -
04/04:30pm NNE 7 7 - - - - - - - 29.5 1005.4 -
04/04:00pm NNE 6 7 - - - - - - - 29.7 1005.1 -
04/03:30pm NNW 6 8 - - - - - - - 30.0 1005.0 -
04/03:00pm N 7 9 - - - - - - - 30.4 1005.2 -
04/02:30pm N 9 11 - - - - - - - 30.4 1005.4 -
04/02:00pm N 10 11 - - - - - - - 30.6 1005.7 -
04/01:30pm NNW 11 12 - - - - - - - 30.5 1005.9 -
04/01:00pm NNW 10 11 - - - - - - - 30.8 1006.0 -
04/12:30pm NNW 10 11 - - - - - - - 30.7 1006.2 -
04/12:00pm NNW 9 11 - - - - - - - 30.7 1006.4 -
04/11:30am NNW 11 13 - - - - - - - 30.4 1006.5 -
04/11:00am NNW 11 13 - - - - - - - 30.3 1006.5 -
04/10:30am NNW 11 13 - - - - - - - 30.2 1006.5 -
04/10:00am NW 13 16 - - - - - - - 29.7 1006.5 -
04/09:30am NNW 13 15 - - - - - - - 29.5 1006.5 -
04/09:00am NNW 14 16 - - - - - - - 29.4 1006.5 -
04/08:30am NW 15 17 - - - - - - - 29.0 1006.4 -
04/08:00am NNW 15 17 - - - - - - - 28.9 1006.2 -
04/07:30am NNW 16 19 - - - - - - - 28.6 1006.0 -
04/07:00am NNW 16 18 - - - - - - - 28.4 1005.6 -
04/06:30am NNW 17 19 - - - - - - - 28.1 1005.2 -
04/06:00am NNW 17 21 - - - - - - - 27.6 1004.9 -

Other formats

Comma delimited format used in spreadsheet applications
http://www.bom.gov.au/fwo/IDQ60701/IDQ60701.94394.axf

JavaScript Object Notation format (JSON) in row-major order
http://www.bom.gov.au/fwo/IDQ60701/IDQ60701.94394.json

Data quality

Most of these data are generated automatically and are frequently updated. Quality checks on data are not normally performed. It is possible for incorrect values to appear. Refer to information at About Latest Weather Observations and please check the disclaimer before using these data.